Flight Track Log - Related Links

Times and Time Zones

All times are in EDT time to prevent confusion due to time zone crossing. See the GJS3707 flight status page for this flight to view local times or setup timezone preferences in your user account.

Time Position Orientation Groundspeed Altitude Reporting Facility
EDT Latitude Longitude Course Direction KTS MPH feet Rate Location/Type
Sat 03:16:29 PM 43.6169 -116.3797 297° West 219 252 6,900  Level Salt Lake Center
Sat 03:17:00 PM 43.6348 -115.7019 82° East  Level FlightAware Approximate
Sat 03:17:31 PM 43.6708 -116.3550 18° North 245 282 8,500  Level Salt Lake Center
Sat 03:18:00 PM 43.6575 -115.5277 65° Northeast  Level FlightAware Approximate
Sat 03:18:33 PM 43.6875 -116.2594 76° East 268 308 9,800  Level Salt Lake Center
Sat 03:19:00 PM 43.6756 -115.3533 81° East  Level FlightAware Approximate
Sat 03:19:35 PM 43.7036 -116.1250 81° East 309 356 11,500  Level Salt Lake Center
Sat 03:20:00 PM 43.7058 -115.1817 81° East  Level FlightAware Approximate
Sat 03:20:37 PM 43.7175 -116.0036 81° East 330 380 13,300  Level Salt Lake Center
Sat 03:21:38 PM 43.7347 -115.8567 81° East 347 399 15,200 1,707 Climbing Salt Lake Center
Sat 03:22:40 PM 43.7489 -115.7239 82° East 363 418 16,800 1,887 Climbing Salt Lake Center
Sat 03:23:42 PM 43.7669 -115.5675 81° East 369 425 19,100 1,839 Climbing Salt Lake Center
Sat 03:24:44 PM 43.7825 -115.4333 81° East 371 427 20,600 1,500 Climbing Salt Lake Center
Sat 03:25:46 PM 43.8003 -115.2686 81° East 386 444 22,200 1,548 Climbing Salt Lake Center
Sat 03:26:48 PM 43.8153 -115.1242 82° East 395 455 23,800 1,548 Climbing Salt Lake Center
Sat 03:27:50 PM 43.8344 -114.9514 81° East 407 468 25,400 1,403 Climbing Salt Lake Center
Sat 03:28:52 PM 43.8506 -114.8019 81° East 412 474 26,700 1,113 Climbing Salt Lake Center
Sat 03:29:54 PM 43.8683 -114.6211 82° East 427 491 27,700 871 Climbing Salt Lake Center
Sat 03:30:56 PM 43.8847 -114.4592 82° East 443 510 28,500 878 Climbing Salt Lake Center
Sat 03:31:57 PM 43.9050 -114.2664 82° East 454 522 29,500 927 Climbing Salt Lake Center
Sat 03:32:59 PM 43.9211 -114.0967 82° East 462 532 30,400 1,016 Climbing Salt Lake Center
Sat 03:34:01 PM 43.9408 -113.9008 82° East 464 534 31,600 968 Climbing Salt Lake Center
Sat 03:35:03 PM 43.9589 -113.7192 82° East 471 542 32,400 677 Climbing Salt Lake Center
Sat 03:36:05 PM 43.9742 -113.5442 83° East 478 550 33,000 677 Climbing Salt Lake Center
Sat 03:37:07 PM 43.9908 -113.3372 84° East 483 556 33,800 726 Climbing Salt Lake Center
Sat 03:38:09 PM 44.0064 -113.1597 83° East 484 557 34,500 726 Climbing Salt Lake Center
Sat 03:39:11 PM 44.0272 -112.9522 82° East 487 560 35,300 726 Climbing Salt Lake Center
Sat 03:40:13 PM 44.0408 -112.7728 84° East 488 562 36,000 683 Climbing Salt Lake Center
Sat 03:41:14 PM 44.0561 -112.5939 83° East 488 562 36,700 488 Climbing Salt Lake Center
Sat 03:42:16 PM 44.0739 -112.3864 83° East 486 559 37,000 145 Climbing Salt Lake Center
Sat 03:43:18 PM 44.0878 -112.2031 84° East 497 572 37,000  Level Salt Lake Center
Sat 03:44:20 PM 44.0906 -111.9847 89° East 506 582 37,000 194 Level Salt Lake Center
Sat 03:45:22 PM 44.0919 -111.7925 89° East 518 596 37,400 726 Climbing Salt Lake Center
Sat 03:46:24 PM 44.0928 -111.5728 90° East 513 590 38,500 780 Climbing Salt Lake Center
Sat 03:47:25 PM 44.0931 -111.3917 90° East 498 573 39,000 244 Climbing Salt Lake Center
Sat 03:48:27 PM 44.0931 -111.1822 90° East 490 564 39,000  Level Salt Lake Center
Sat 03:49:29 PM 44.0928 -111.0019 90° East 490 564 39,000  Level Salt Lake Center
Sat 03:50:31 PM 44.0925 -110.7928 90° East 489 563 39,000  Level Salt Lake Center
Sat 03:51:33 PM 44.0919 -110.6147 90° East 485 558 39,000  Level Salt Lake Center
Sat 03:52:35 PM 44.0933 -110.4039 89° East 488 562 39,000  Level Salt Lake Center
Sat 03:53:37 PM 44.0914 -110.2244 91° East 486 559 39,000  Level Salt Lake Center
Sat 03:54:38 PM 44.0892 -110.0164 91° East 484 557 39,000  Level Salt Lake Center
Sat 03:55:40 PM 44.0883 -109.8356 90° East 488 562 39,000  Level Salt Lake Center
Sat 03:56:42 PM 44.0847 -109.6267 91° East 487 560 39,000  Level Salt Lake Center
Sat 03:57:44 PM 44.0825 -109.4572 91° East 487 560 39,000  Level Salt Lake Center
Sat 03:58:46 PM 44.0792 -109.2700 91° East 487 560 39,000  Level Salt Lake Center
Sat 03:59:48 PM 44.0758 -109.0433 91° East 490 564 39,000  Level Salt Lake Center
Sat 04:00:50 PM 44.0719 -108.8575 92° East 486 559 39,000  Level Salt Lake Center
Sat 04:01:52 PM 44.0689 -108.6722 91° East 483 556 39,000  Level Salt Lake Center
Sat 04:02:53 PM 44.0639 -108.4858 92° East 485 558 39,000  Level Salt Lake Center
Sat 04:03:55 PM 44.0603 -108.2994 91° East 486 559 39,000  Level Salt Lake Center
Sat 04:04:57 PM 44.0544 -108.1131 92° East 486 559 39,000  Level Salt Lake Center
Sat 04:05:59 PM 44.0494 -107.8889 92° East 486 559 39,000  Level Salt Lake Center
Sat 04:07:01 PM 44.0594 -107.7022 86° East 489 563 39,000  Level Salt Lake Center
Sat 04:08:03 PM 44.0692 -107.5158 86° East 489 563 39,000  Level Salt Lake Center
Sat 04:09:04 PM 44.0797 -107.3300 85° East 487 560 39,000  Level Salt Lake Center
Sat 04:10:06 PM 44.0914 -107.1431 85° East 488 562 39,000  Level Salt Lake Center
Sat 04:11:08 PM 44.1033 -106.9556 85° East 490 564 39,000  Level Salt Lake Center
Sat 04:12:10 PM 44.1178 -106.7311 85° East 488 562 39,000  Level Salt Lake Center
Sat 04:13:12 PM 44.1297 -106.5472 85° East 482 555 39,000  Level Salt Lake Center
Sat 04:14:13 PM 44.1431 -106.3608 84° East 486 559 39,000  Level Salt Lake Center
Sat 04:15:15 PM 44.1547 -106.1742 85° East 486 559 39,000  Level Salt Lake Center
Sat 04:15:54 PM 44.1597 -106.0867 85° East 485 558 39,000  Level Denver Center
Sat 04:17:08 PM 44.1731 -105.8506 85° East 480 552 39,000  Level Denver Center
Sat 04:18:10 PM 44.1881 -105.6139 85° East 481 554 39,000  Level Denver Center
Sat 04:19:12 PM 44.1983 -105.4372 85° East 479 551 39,000  Level Denver Center
Sat 04:20:14 PM 44.2081 -105.2608 86° East 477 549 39,000  Level Denver Center
Sat 04:21:16 PM 44.2239 -105.0561 84° East 477 549 39,000  Level Denver Center
Sat 04:22:18 PM 44.2372 -104.8803 84° East 476 548 39,000  Level Denver Center
Sat 04:23:19 PM 44.2517 -104.6753 84° East 476 548 39,000  Level Denver Center
Sat 04:24:21 PM 44.2653 -104.5006 84° East 474 545 39,000  Level Denver Center
Sat 04:25:23 PM 44.2789 -104.2928 85° East 482 555 39,000  Level Denver Center
Sat 04:26:25 PM 44.2933 -104.1144 83° East 484 557 39,000  Level Denver Center
Sat 04:27:27 PM 44.3083 -103.9383 83° East 478 550 39,000  Level Denver Center
Sat 04:28:28 PM 44.3250 -103.7286 84° East 483 556 39,000  Level Denver Center
Sat 04:29:30 PM 44.3408 -103.5517 83° East 482 555 39,000  Level Denver Center
Sat 04:30:32 PM 44.3561 -103.3425 84° East 484 557 39,000  Level Denver Center
Sat 04:31:34 PM 44.3711 -103.1686 83° East 481 554 39,000  Level Denver Center
Sat 04:32:36 PM 44.3881 -102.9808 83° East 484 557 39,000  Level Denver Center
Sat 04:33:38 PM 44.4036 -102.7936 83° East 487 560 39,000  Level Denver Center
Sat 04:34:39 PM 44.4072 -102.5658 89° East 492 566 39,000  Level Denver Center
Sat 04:35:41 PM 44.3889 -102.3775 98° East 498 573 39,000  Level Denver Center
Sat 04:36:43 PM 44.3700 -102.1897 98° East 492 566 39,000  Level Denver Center
Sat 04:37:45 PM 44.3486 -102.0042 99° East 489 563 39,000  Level Denver Center
Sat 04:38:47 PM 44.3264 -101.8181 99° East 487 560 39,000  Level Denver Center
Sat 04:39:49 PM 44.3058 -101.6336 99° East 486 559 39,000  Level Denver Center
Sat 04:40:50 PM 44.2836 -101.4492 99° East 484 557 39,000  Level Denver Center
Sat 04:41:47 PM 44.2544 -101.2697 103° East 481 554 39,000  Level Minneapolis Center
Sat 04:42:54 PM 44.2028 -101.0550 108° East 481 554 39,000  Level Denver Center
Sat 04:43:51 PM 44.1711 -100.8767 104° East 483 556 39,000  Level Minneapolis Center
Sat 04:44:53 PM 44.1533 -100.6919 98° East 484 557 39,000  Level Minneapolis Center
Sat 04:45:55 PM 44.1339 -100.5075 98° East 484 557 39,000  Level Minneapolis Center
Sat 04:46:57 PM 44.1136 -100.3256 99° East 481 554 39,000  Level Minneapolis Center
Sat 04:47:59 PM 44.0931 -100.1453 99° East 477 549 39,000  Level Minneapolis Center
Sat 04:49:01 PM 44.0714 -99.9644 99° East 476 548 39,000  Level Minneapolis Center
Sat 04:50:03 PM 44.0447 -99.7478 100° East 477 549 39,000  Level Minneapolis Center
Sat 04:51:05 PM 44.0233 -99.5636 99° East 480 552 39,000  Level Minneapolis Center
Sat 04:52:08 PM 44.0019 -99.3786 99° East 484 557 39,000  Level Minneapolis Center
Sat 04:53:10 PM 43.9800 -99.1958 99° East 484 557 39,000  Level Minneapolis Center
Sat 04:54:12 PM 43.9572 -99.0136 100° East 483 556 39,000  Level Minneapolis Center
Sat 04:55:26 PM 43.9286 -98.7972 100° East 480 552 39,000  Level Minneapolis Center
Sat 04:56:28 PM 43.9006 -98.5811 100° East 479 551 39,000  Level Minneapolis Center
Sat 04:57:30 PM 43.8744 -98.3986 101° East 481 554 39,000  Level Minneapolis Center
Sat 04:58:32 PM 43.8497 -98.2131 100° East 486 559 39,000  Level Minneapolis Center
Sat 04:59:34 PM 43.8247 -98.0272 101° East 490 564 39,000  Level Minneapolis Center
Sat 05:00:36 PM 43.8008 -97.8411 100° East 493 567 39,000  Level Minneapolis Center
Sat 05:01:42 PM 43.7706 -97.6206 101° East 489 563 39,000  Level Minneapolis Center
Sat 05:02:44 PM 43.7444 -97.4383 101° East 487 560 39,000  Level Minneapolis Center
Sat 05:03:46 PM 43.7181 -97.2553 101° East 488 562 39,000  Level Minneapolis Center
Sat 05:04:48 PM 43.6869 -97.0369 101° East 486 559 39,000  Level Minneapolis Center
Sat 05:05:50 PM 43.6603 -96.8556 101° East 486 559 39,000  Level Minneapolis Center
Sat 05:06:52 PM 43.6339 -96.6742 101° East 486 559 39,000  Level Minneapolis Center
Sat 05:07:54 PM 43.6075 -96.4944 101° East 484 557 39,000  Level Minneapolis Center
Sat 05:08:55 PM 43.5806 -96.3150 102° East 483 556 39,000  Level Minneapolis Center
Sat 05:09:57 PM 43.5544 -96.1381 101° East 479 551 39,000  Level Minneapolis Center
Sat 05:10:59 PM 43.5228 -95.9264 102° East 476 548 39,000  Level Minneapolis Center
Sat 05:12:01 PM 43.4956 -95.7517 102° East 471 542 39,000  Level Minneapolis Center
Sat 05:13:03 PM 43.4683 -95.5761 102° East 473 544 39,000  Level Minneapolis Center
Sat 05:14:05 PM 43.4400 -95.3958 102° East 482 555 39,000  Level Minneapolis Center
Sat 05:15:07 PM 43.4142 -95.2161 101° East 484 557 39,000  Level Minneapolis Center
Sat 05:16:09 PM 43.4044 -94.9925 93° East 489 563 39,000  Level Minneapolis Center
Sat 05:17:11 PM 43.3950 -94.8061 94° East 491 565 39,000  Level Minneapolis Center
Sat 05:18:13 PM 43.3850 -94.6222 94° East 486 559 39,000  Level Minneapolis Center
Sat 05:19:15 PM 43.3747 -94.4369 94° East 487 560 39,000  Level Minneapolis Center
Sat 05:20:17 PM 43.3633 -94.2461 95° East 484 557 39,000  Level Minneapolis Center
Sat 05:21:19 PM 43.3506 -94.0625 95° East 486 559 39,000  Level Minneapolis Center
Sat 05:22:21 PM 43.3400 -93.8797 94° East 485 558 39,000  Level Minneapolis Center
Sat 05:23:23 PM 43.3289 -93.6978 95° East 484 557 39,000  Level Minneapolis Center
Sat 05:24:25 PM 43.3158 -93.4828 95° East 478 550 39,000  Level Minneapolis Center
Sat 05:25:27 PM 43.3047 -93.3006 95° East 480 552 39,000  Level Minneapolis Center
Sat 05:26:28 PM 43.2928 -93.1175 95° East 484 557 39,000  Level Minneapolis Center
Sat 05:27:30 PM 43.2800 -92.9353 95° East 484 557 39,000 -484 Level Minneapolis Center
Sat 05:28:32 PM 43.2681 -92.7558 95° East 481 554 38,000 -1,161 Descending Minneapolis Center
Sat 05:29:34 PM 43.2517 -92.5361 96° East 484 557 36,600 -1,258 Descending Minneapolis Center
Sat 05:30:36 PM 43.2381 -92.3500 96° East 492 566 35,400 -1,171 Descending Minneapolis Center
Sat 05:31:37 PM 43.2244 -92.1606 96° East 500 575 34,200 -1,220 Descending Minneapolis Center
Sat 05:32:39 PM 43.2111 -91.9706 95° East 502 578 32,900 -1,258 Descending Minneapolis Center
Sat 05:33:41 PM 43.1972 -91.7800 96° East 504 580 31,600 -919 Descending Minneapolis Center
Sat 05:34:43 PM 43.1625 -91.5914 104° East 518 596 31,000 -290 Descending Minneapolis Center
Sat 05:35:45 PM 43.1022 -91.4150 115° Southeast 513 590 31,000  Level Minneapolis Center
Sat 05:36:35 PM 43.0392 -91.2375 116° Southeast 520 598 31,000  Level Chicago Center
Sat 05:37:36 PM 42.9758 -91.0533 115° Southeast 533 613 31,000  Level Chicago Center
Sat 05:38:38 PM 42.9128 -90.8700 115° Southeast 539 620 31,000 -49 Level Chicago Center
Sat 05:39:39 PM 42.8481 -90.6883 116° Southeast 537 618 30,900 -537 Descending Chicago Center
Sat 05:40:41 PM 42.7831 -90.5081 116° Southeast 535 616 29,900 -968 Descending Chicago Center
Sat 05:41:43 PM 42.7206 -90.3364 116° Southeast 517 595 28,900 -976 Descending Chicago Center
Sat 05:42:44 PM 42.6603 -90.1650 116° Southeast 509 586 27,900 -1,073 Descending Chicago Center
Sat 05:43:46 PM 42.6106 -89.9528 108° East 503 579 26,700 -1,073 Descending Chicago Center
Sat 05:44:47 PM 42.5814 -89.7722 102° East 493 567 25,700 -976 Descending Chicago Center
Sat 05:45:49 PM 42.5528 -89.5933 102° East 489 563 24,700 -976 Descending Chicago Center
Sat 05:46:50 PM 42.5239 -89.4122 102° East 491 565 23,700 -976 Descending Chicago Center
Sat 05:47:52 PM 42.4958 -89.2347 102° East 486 559 22,700 -2,371 Descending Chicago Center
Sat 05:48:54 PM 42.4631 -89.0350 102° East 471 542 18,800 -3,366 Descending Chicago Center
Sat 05:49:55 PM 42.4364 -88.8706 102° East 453 521 15,800 -2,927 Descending Chicago Center
Sat 05:50:57 PM 42.4100 -88.7147 103° East 431 496 12,800 -2,585 Descending Chicago Center
Sat 05:51:58 PM 42.3858 -88.5697 103° East 401 461 10,500 -1,366 Descending Chicago Center
Sat 05:53:00 PM 42.3561 -88.4378 107° East 375 432 10,000 -242 Descending Chicago Center
Sat 05:54:02 PM 42.2936 -88.3119 124° Southeast 374 430 10,000 -49 Level Chicago Center
Sat 05:55:03 PM 42.2283 -88.2039 129° Southeast 375 432 9,900 -488 Descending Chicago Center
Sat 05:56:05 PM 42.1669 -88.1133 132° Southeast 341 392 9,000 -1,248 Descending Chicago Center
Sat 05:56:44 PM 42.1167 -88.0500 137° Southeast 304 350 7,800 -1,273 Descending Chicago TRACON
Sat 05:57:44 PM 42.1000 -87.9667 105° East 281 323 6,900 -400 Descending Chicago TRACON
Sat 05:58:44 PM 42.1000 -87.8667 90° East 254 292 7,000 -400 Climbing Chicago TRACON
Sat 05:59:44 PM 42.0833 -87.7833 105° East 243 280 6,100 -1,000 Descending Chicago TRACON
Sat 06:00:14 PM 42.0911 -87.7389 77° East 249 287 5,500 -1,174 Descending Chicago Center
Sat 06:01:16 PM 42.0583 -87.6800 127° Southeast 240 276 4,300 -1,171 Descending Chicago Center
Sat 06:02:17 PM 42.0131 -87.7297 219° Southwest 221 254 3,100 -1,180 Descending Chicago Center

Login

Don't have an account? Register now (free) for customized features, flight alerts, and more!